createdAt,value
2023-03-05T00:01:04.294Z,9.52
2023-03-05T00:05:12.370Z,10.27
2023-03-05T00:14:06.518Z,10.10
2023-03-05T00:17:59.591Z,9.50
2023-03-05T00:21:52.650Z,10.30
2023-03-05T00:25:46.701Z,9.43
2023-03-05T00:29:40.006Z,10.55
2023-03-05T00:42:15.435Z,10.68
2023-03-05T00:46:08.524Z,10.35
2023-03-05T00:50:01.446Z,10.23
2023-03-05T00:53:54.818Z,9.63
2023-03-05T00:57:50.602Z,10.10
2023-03-05T01:01:50.658Z,9.70
2023-03-05T01:23:37.670Z,9.20
2023-03-05T01:27:30.948Z,9.18
2023-03-05T01:31:23.764Z,9.82
2023-03-05T01:35:20.052Z,9.38
2023-03-05T01:39:13.180Z,9.00
2023-03-05T01:43:24.486Z,8.75
2023-03-05T01:47:17.368Z,8.98
2023-03-05T01:59:39.204Z,8.27
2023-03-05T02:03:33.438Z,9.35
2023-03-05T02:07:26.606Z,8.13
2023-03-05T02:11:20.497Z,8.50
2023-03-05T02:15:13.361Z,8.57
2023-03-05T02:19:09.356Z,9.00
2023-03-05T02:23:16.611Z,8.20
2023-03-05T02:31:44.685Z,9.18
2023-03-05T02:35:37.683Z,9.00
2023-03-05T02:43:56.625Z,8.05
2023-03-05T02:47:49.712Z,9.32
2023-03-05T02:51:42.701Z,8.75
2023-03-05T02:55:35.552Z,9.45
2023-03-05T02:59:28.487Z,8.18
2023-03-05T03:03:21.584Z,8.68
2023-03-05T03:07:15.462Z,7.75
2023-03-05T03:11:12.798Z,7.78
2023-03-05T03:19:27.551Z,8.13
2023-03-05T03:23:20.447Z,7.70
2023-03-05T03:27:13.212Z,8.10
2023-03-05T03:31:06.193Z,8.32
2023-03-05T03:34:59.302Z,8.38
2023-03-05T03:38:51.912Z,8.50
2023-03-05T04:00:11.469Z,7.90
2023-03-05T04:04:05.014Z,7.03
2023-03-05T04:16:53.799Z,7.40
2023-03-05T04:20:47.018Z,6.72
2023-03-05T04:24:39.890Z,7.63
2023-03-05T04:28:33.757Z,7.25
2023-03-05T04:32:26.934Z,7.97
2023-03-05T04:36:19.868Z,8.45
2023-03-05T04:40:13.077Z,8.07
2023-03-05T04:44:05.900Z,8.07
2023-03-05T04:47:58.754Z,7.97
2023-03-05T04:51:52.086Z,8.15
2023-03-05T04:55:44.866Z,8.68
2023-03-05T04:59:38.274Z,7.82
2023-03-05T05:03:31.587Z,8.38
2023-03-05T05:07:24.472Z,8.73
2023-03-05T05:11:17.200Z,9.75
2023-03-05T05:28:44.962Z,9.30
2023-03-05T05:32:37.817Z,10.45
2023-03-05T05:36:30.780Z,10.15
2023-03-05T05:40:24.369Z,11.32
2023-03-05T05:44:17.250Z,10.93
2023-03-05T05:48:10.042Z,11.02
2023-03-05T05:52:02.768Z,10.38
2023-03-05T05:55:55.558Z,10.48
2023-03-05T05:59:48.515Z,10.15
2023-03-05T06:17:54.871Z,10.80
2023-03-05T06:26:19.056Z,11.70
2023-03-05T06:30:12.703Z,11.07
2023-03-05T06:43:23.268Z,12.70
2023-03-05T06:47:16.355Z,11.55
2023-03-05T07:00:20.055Z,11.77
2023-03-05T07:04:13.282Z,10.75
2023-03-05T07:08:05.948Z,10.88
2023-03-05T07:11:58.662Z,10.80
2023-03-05T07:15:51.823Z,12.07
2023-03-05T07:19:45.335Z,10.70
2023-03-05T07:23:38.752Z,10.93
2023-03-05T07:27:34.608Z,11.63
2023-03-05T07:31:31.036Z,10.70
2023-03-05T07:35:24.828Z,10.82
2023-03-05T07:39:19.428Z,11.02
2023-03-05T07:43:12.200Z,12.00
2023-03-05T07:47:05.563Z,11.80
2023-03-05T07:51:10.959Z,11.98
2023-03-05T07:55:03.816Z,12.25
2023-03-05T07:58:56.583Z,12.80
2023-03-05T08:02:50.369Z,13.20
2023-03-05T08:06:43.065Z,13.10
2023-03-05T08:10:36.863Z,11.90
2023-03-05T08:14:29.879Z,12.70
2023-03-05T08:18:22.325Z,12.35
2023-03-05T08:22:17.685Z,12.13
2023-03-05T08:26:18.935Z,12.25
2023-03-05T08:30:14.143Z,13.00
2023-03-05T08:34:07.614Z,12.50
2023-03-05T08:38:00.122Z,12.55
2023-03-05T08:41:53.014Z,12.02
2023-03-05T08:45:47.609Z,12.75
2023-03-05T08:49:40.374Z,13.05
2023-03-05T08:53:33.237Z,14.02
2023-03-05T08:57:25.728Z,14.43
2023-03-05T09:01:19.067Z,13.75
2023-03-05T09:05:11.700Z,14.48
2023-03-05T09:09:04.311Z,13.52
2023-03-05T09:12:56.943Z,13.73
2023-03-05T09:16:49.747Z,13.68
2023-03-05T09:20:42.681Z,11.13
2023-03-05T09:24:35.190Z,11.95
2023-03-05T09:28:27.975Z,11.32
2023-03-05T09:32:20.632Z,11.02
2023-03-05T09:36:18.317Z,10.48
2023-03-05T09:40:16.158Z,10.82
2023-03-05T09:44:43.650Z,11.20
2023-03-05T09:48:59.833Z,9.52
2023-03-05T09:52:57.339Z,9.85
2023-03-05T09:56:57.105Z,11.23
2023-03-05T10:00:53.659Z,10.02
2023-03-05T10:05:04.726Z,9.52
2023-03-05T10:09:21.240Z,10.07
2023-03-05T10:13:25.647Z,10.45
2023-03-05T10:17:40.253Z,10.65
2023-03-05T10:21:42.498Z,10.95
2023-03-05T10:25:49.983Z,11.60
2023-03-05T10:30:07.664Z,15.30
2023-03-05T10:34:24.103Z,19.13
2023-03-05T10:38:35.678Z,14.18
2023-03-05T10:42:35.564Z,17.33
2023-03-05T10:46:36.403Z,20.60
2023-03-05T10:50:37.541Z,25.63
2023-03-05T10:54:36.417Z,14.93
2023-03-05T10:58:29.245Z,15.20
2023-03-05T11:02:25.905Z,23.13
2023-03-05T11:06:47.877Z,15.23
2023-03-05T11:10:40.893Z,13.98
2023-03-05T11:14:35.282Z,14.95
2023-03-05T11:18:31.698Z,14.80
2023-03-05T11:22:26.288Z,13.27
2023-03-05T11:26:23.409Z,15.95
2023-03-05T11:30:28.357Z,15.65
2023-03-05T11:34:21.162Z,14.15
2023-03-05T11:38:26.235Z,16.85
2023-03-05T11:42:26.106Z,10.80
2023-03-05T11:46:21.079Z,11.45
2023-03-05T11:50:16.680Z,11.48
2023-03-05T11:54:16.365Z,11.20
2023-03-05T11:58:21.452Z,9.13
2023-03-05T12:02:24.356Z,36.17
2023-03-05T12:06:35.946Z,20.27
2023-03-05T12:10:30.118Z,8.18
2023-03-05T12:14:33.481Z,12.80
2023-03-05T12:18:49.002Z,9.07
2023-03-05T12:22:43.341Z,8.23
2023-03-05T12:26:58.521Z,7.88
2023-03-05T12:30:52.414Z,8.40
2023-03-05T12:34:49.557Z,9.02
2023-03-05T12:38:42.519Z,6.90
2023-03-05T12:42:38.014Z,8.30
2023-03-05T12:46:33.213Z,7.25
2023-03-05T12:50:30.257Z,8.63
2023-03-05T12:58:57.489Z,8.15
2023-03-05T13:02:58.857Z,10.47
2023-03-05T13:07:01.605Z,12.88
2023-03-05T13:10:58.556Z,14.40
2023-03-05T13:15:15.377Z,13.27
2023-03-05T13:19:18.346Z,8.70
2023-03-05T13:23:30.140Z,8.38
2023-03-05T13:27:31.312Z,4.80
2023-03-05T13:31:24.926Z,5.40
2023-03-05T13:35:20.377Z,11.20
2023-03-05T13:39:20.734Z,7.32
2023-03-05T13:43:20.466Z,7.93
2023-03-05T13:47:22.525Z,7.32
2023-03-05T13:51:15.784Z,7.40
2023-03-05T13:55:18.045Z,11.43
2023-03-05T13:59:19.932Z,6.55
2023-03-05T14:03:27.300Z,5.50
2023-03-05T14:07:41.261Z,5.72
2023-03-05T14:11:37.277Z,11.02
2023-03-05T14:15:35.815Z,8.25
2023-03-05T14:19:35.994Z,8.10
2023-03-05T14:23:47.942Z,9.73
2023-03-05T14:27:41.358Z,10.20
2023-03-05T14:31:50.796Z,18.20
2023-03-05T14:35:50.504Z,4.90
2023-03-05T14:39:58.625Z,5.07
2023-03-05T14:43:52.641Z,5.82
2023-03-05T14:47:48.649Z,5.15
2023-03-05T14:51:47.683Z,13.30
2023-03-05T14:55:49.056Z,9.23
2023-03-05T14:59:42.285Z,6.72
2023-03-05T15:03:38.745Z,7.70
2023-03-05T15:07:33.286Z,9.65
2023-03-05T15:11:27.034Z,9.70
2023-03-05T15:15:22.599Z,7.10
2023-03-05T15:19:15.916Z,7.97
2023-03-05T15:23:10.014Z,7.22
2023-03-05T15:27:04.838Z,6.63
2023-03-05T15:31:00.794Z,5.57
2023-03-05T15:34:54.966Z,5.97
2023-03-05T15:38:48.700Z,5.15
2023-03-05T15:42:42.644Z,5.35
2023-03-05T15:46:36.950Z,4.20
2023-03-05T15:50:30.588Z,3.92
2023-03-05T15:54:24.136Z,4.28
2023-03-05T15:58:18.272Z,4.57
2023-03-05T16:02:11.914Z,5.53
2023-03-05T16:06:07.036Z,4.45
2023-03-05T16:10:01.087Z,3.85
2023-03-05T16:13:54.395Z,3.92
2023-03-05T16:17:52.440Z,6.00
2023-03-05T16:21:46.687Z,5.15
2023-03-05T16:25:41.001Z,4.35
2023-03-05T16:29:35.317Z,4.35
2023-03-05T16:33:29.253Z,5.05
2023-03-05T16:37:24.690Z,4.55
2023-03-05T16:41:19.581Z,4.13
2023-03-05T16:45:15.837Z,3.63
2023-03-05T16:49:12.032Z,4.05
2023-03-05T16:53:05.665Z,3.10
2023-03-05T17:00:54.525Z,8.55
2023-03-05T17:04:50.044Z,8.77
2023-03-05T17:08:44.333Z,7.70
2023-03-05T17:12:38.865Z,5.63
2023-03-05T17:16:33.114Z,4.68
2023-03-05T17:20:26.796Z,15.02
2023-03-05T17:24:22.374Z,3.83
2023-03-05T17:28:16.457Z,3.47
2023-03-05T17:32:11.525Z,3.63
2023-03-05T17:36:06.663Z,4.15
2023-03-05T17:40:05.818Z,4.53
2023-03-05T17:44:03.191Z,4.88
2023-03-05T17:47:58.822Z,8.90
2023-03-05T17:51:52.913Z,4.68
2023-03-05T17:55:46.998Z,6.43
2023-03-05T17:59:41.503Z,4.65
2023-03-05T18:03:41.623Z,4.40
2023-03-05T18:07:41.204Z,4.57
2023-03-05T18:11:35.218Z,5.18
2023-03-05T18:15:42.582Z,6.90
2023-03-05T18:19:36.798Z,5.57
2023-03-05T18:23:30.934Z,5.75
2023-03-05T18:27:25.781Z,6.93
2023-03-05T18:31:22.152Z,6.20
2023-03-05T18:35:20.586Z,7.15
2023-03-05T18:39:17.234Z,7.50
2023-03-05T18:43:12.709Z,5.68
2023-03-05T18:47:06.523Z,12.32
2023-03-05T18:51:05.195Z,6.20
2023-03-05T18:54:59.744Z,4.97
2023-03-05T18:58:54.032Z,7.05
2023-03-05T19:02:48.325Z,5.97
2023-03-05T19:06:44.445Z,4.90
2023-03-05T19:10:41.898Z,4.40
2023-03-05T19:14:35.650Z,4.88
2023-03-05T19:18:34.550Z,6.72
2023-03-05T19:22:32.653Z,6.10
2023-03-05T19:26:32.605Z,5.68
2023-03-05T19:30:34.138Z,7.25
2023-03-05T19:34:28.177Z,7.53
2023-03-05T19:38:22.457Z,7.90
2023-03-05T19:42:16.766Z,5.90
2023-03-05T19:46:11.220Z,7.25
2023-03-05T19:50:07.490Z,8.82
2023-03-05T19:54:07.610Z,12.65
2023-03-05T19:58:07.671Z,8.35
2023-03-05T20:02:12.295Z,9.53
2023-03-05T20:06:17.546Z,8.38
2023-03-05T20:10:21.913Z,12.07
2023-03-05T20:14:38.389Z,9.30
2023-03-05T20:18:45.030Z,9.88
2023-03-05T20:22:47.083Z,9.35
2023-03-05T20:26:53.450Z,6.13
2023-03-05T20:30:55.672Z,7.32
2023-03-05T20:34:52.737Z,8.45
2023-03-05T20:38:48.798Z,8.27
2023-03-05T20:42:43.642Z,8.18
2023-03-05T20:47:03.472Z,9.05
2023-03-05T20:51:28.934Z,7.63
2023-03-05T20:55:33.499Z,5.97
2023-03-05T20:59:40.962Z,7.00
2023-03-05T21:03:44.230Z,9.48
2023-03-05T21:08:00.026Z,9.10
2023-03-05T21:11:58.076Z,8.13
2023-03-05T21:16:08.066Z,8.32
2023-03-05T21:20:03.945Z,7.95
2023-03-05T21:24:01.996Z,9.45
2023-03-05T21:28:26.905Z,8.07
2023-03-05T21:32:25.849Z,7.22
2023-03-05T21:36:27.157Z,6.18
2023-03-05T21:40:28.432Z,5.70
2023-03-05T21:44:34.047Z,5.60
2023-03-05T21:48:34.401Z,5.05
2023-03-05T21:52:35.486Z,5.07
2023-03-05T22:00:45.815Z,9.02
2023-03-05T22:04:39.181Z,8.43
2023-03-05T22:08:31.947Z,6.60
2023-03-05T22:12:43.207Z,6.45
2023-03-05T22:16:35.846Z,8.52
2023-03-05T22:20:28.761Z,8.25
2023-03-05T22:24:22.062Z,8.23
2023-03-05T22:28:14.747Z,7.53
2023-03-05T22:32:07.679Z,8.65
2023-03-05T22:36:00.528Z,7.38
2023-03-05T22:39:57.024Z,7.25
2023-03-05T22:43:51.041Z,7.80
2023-03-05T22:47:46.819Z,8.63
2023-03-05T22:51:39.624Z,9.07
2023-03-05T22:55:32.182Z,8.30
2023-03-05T22:59:25.206Z,9.65
2023-03-05T23:03:18.330Z,10.35
2023-03-05T23:07:11.062Z,9.50
2023-03-05T23:11:10.168Z,8.32
2023-03-05T23:15:06.406Z,8.27
2023-03-05T23:18:59.532Z,7.57
2023-03-05T23:22:56.318Z,7.70
